sensor_id;sensor_type;location;lat;lon;timestamp;temperature;humidity
28959;DHT22;16066;0.000;0.000;2023-07-13T05:32:39;20.30;50.60
28959;DHT22;16066;0.000;0.000;2023-07-13T05:35:05;20.30;50.80
28959;DHT22;16066;0.000;0.000;2023-07-13T05:37:31;20.30;50.80
28959;DHT22;16066;0.000;0.000;2023-07-13T05:39:57;20.30;50.70
28959;DHT22;16066;0.000;0.000;2023-07-13T05:42:22;20.20;50.80
28959;DHT22;16066;0.000;0.000;2023-07-13T05:44:48;20.20;51.20
28959;DHT22;16066;0.000;0.000;2023-07-13T05:47:14;20.20;51.40
28959;DHT22;16066;0.000;0.000;2023-07-13T05:49:40;20.20;51.40
28959;DHT22;16066;0.000;0.000;2023-07-13T05:52:06;20.20;51.50
28959;DHT22;16066;0.000;0.000;2023-07-13T05:54:32;20.10;51.40
28959;DHT22;16066;0.000;0.000;2023-07-13T05:56:57;20.10;51.60
28959;DHT22;16066;0.000;0.000;2023-07-13T05:59:23;20.10;51.70
28959;DHT22;16066;0.000;0.000;2023-07-13T06:01:49;20.10;51.80
28959;DHT22;16066;0.000;0.000;2023-07-13T06:04:15;20.00;52.00
28959;DHT22;16066;0.000;0.000;2023-07-13T06:06:40;20.00;52.20
28959;DHT22;16066;0.000;0.000;2023-07-13T06:09:06;20.00;52.30
28959;DHT22;16066;0.000;0.000;2023-07-13T06:11:31;20.00;52.50
28959;DHT22;16066;0.000;0.000;2023-07-13T06:13:57;20.00;52.50
28959;DHT22;16066;0.000;0.000;2023-07-13T06:16:23;20.00;52.60
28959;DHT22;16066;0.000;0.000;2023-07-13T06:18:48;19.90;52.70
28959;DHT22;16066;0.000;0.000;2023-07-13T06:21:19;20.00;52.90
28959;DHT22;16066;0.000;0.000;2023-07-13T06:23:45;20.00;52.80
28959;DHT22;16066;0.000;0.000;2023-07-13T06:26:13;20.00;52.70
28959;DHT22;16066;0.000;0.000;2023-07-13T06:28:39;20.10;52.80
28959;DHT22;16066;0.000;0.000;2023-07-13T06:31:10;20.10;52.80
28959;DHT22;16066;0.000;0.000;2023-07-13T06:33:36;20.10;52.80
28959;DHT22;16066;0.000;0.000;2023-07-13T06:36:03;20.10;53.40
28959;DHT22;16066;0.000;0.000;2023-07-13T06:38:29;20.10;52.90
28959;DHT22;16066;0.000;0.000;2023-07-13T06:40:54;20.10;53.00
28959;DHT22;16066;0.000;0.000;2023-07-13T06:43:20;20.00;53.30
28959;DHT22;16066;0.000;0.000;2023-07-13T06:45:46;20.10;53.30
28959;DHT22;16066;0.000;0.000;2023-07-13T06:48:15;20.10;53.40
28959;DHT22;16066;0.000;0.000;2023-07-13T06:50:41;20.10;53.50
28959;DHT22;16066;0.000;0.000;2023-07-13T06:53:07;20.10;53.50
28959;DHT22;16066;0.000;0.000;2023-07-13T06:55:32;20.10;53.60
28959;DHT22;16066;0.000;0.000;2023-07-13T06:57:58;20.10;53.50
28959;DHT22;16066;0.000;0.000;2023-07-13T07:00:23;20.10;53.50
28959;DHT22;16066;0.000;0.000;2023-07-13T07:02:49;20.20;53.70
28959;DHT22;16066;0.000;0.000;2023-07-13T07:05:15;20.20;53.60
28959;DHT22;16066;0.000;0.000;2023-07-13T07:07:40;20.30;53.80
28959;DHT22;16066;0.000;0.000;2023-07-13T07:10:06;20.30;53.80
28959;DHT22;16066;0.000;0.000;2023-07-13T07:12:32;20.30;53.80
28959;DHT22;16066;0.000;0.000;2023-07-13T07:14:57;20.30;53.90
28959;DHT22;16066;0.000;0.000;2023-07-13T07:17:23;20.30;53.90
28959;DHT22;16066;0.000;0.000;2023-07-13T07:19:48;20.30;54.10
28959;DHT22;16066;0.000;0.000;2023-07-13T07:22:14;20.20;54.20
28959;DHT22;16066;0.000;0.000;2023-07-13T07:24:39;20.20;54.10
28959;DHT22;16066;0.000;0.000;2023-07-13T07:27:05;20.30;54.30
28959;DHT22;16066;0.000;0.000;2023-07-13T07:29:31;20.30;54.20
28959;DHT22;16066;0.000;0.000;2023-07-13T07:31:56;20.30;54.20
28959;DHT22;16066;0.000;0.000;2023-07-13T07:34:23;20.30;54.20
28959;DHT22;16066;0.000;0.000;2023-07-13T07:36:49;20.30;54.20
28959;DHT22;16066;0.000;0.000;2023-07-13T07:39:15;20.30;54.20
28959;DHT22;16066;0.000;0.000;2023-07-13T07:41:41;20.30;54.50
28959;DHT22;16066;0.000;0.000;2023-07-13T07:44:07;20.30;54.20
28959;DHT22;16066;0.000;0.000;2023-07-13T07:46:35;20.30;54.20
28959;DHT22;16066;0.000;0.000;2023-07-13T07:49:00;20.40;54.30
28959;DHT22;16066;0.000;0.000;2023-07-13T07:51:26;20.40;54.20
28959;DHT22;16066;0.000;0.000;2023-07-13T07:53:51;20.40;54.20
28959;DHT22;16066;0.000;0.000;2023-07-13T07:56:17;20.40;54.20
28959;DHT22;16066;0.000;0.000;2023-07-13T07:58:43;20.40;54.30
28959;DHT22;16066;0.000;0.000;2023-07-13T08:01:09;20.30;54.20
28959;DHT22;16066;0.000;0.000;2023-07-13T08:03:35;20.40;54.20
28959;DHT22;16066;0.000;0.000;2023-07-13T08:06:01;20.40;54.30
28959;DHT22;16066;0.000;0.000;2023-07-13T08:08:27;20.40;54.20
28959;DHT22;16066;0.000;0.000;2023-07-13T08:10:53;20.40;54.20
28959;DHT22;16066;0.000;0.000;2023-07-13T08:13:19;20.40;54.20
28959;DHT22;16066;0.000;0.000;2023-07-13T08:15:45;20.40;54.80
28959;DHT22;16066;0.000;0.000;2023-07-13T08:18:11;20.40;54.20
28959;DHT22;16066;0.000;0.000;2023-07-13T08:20:39;20.40;54.30
28959;DHT22;16066;0.000;0.000;2023-07-13T08:23:06;20.50;54.20
28959;DHT22;16066;0.000;0.000;2023-07-13T08:25:32;20.50;54.40
28959;DHT22;16066;0.000;0.000;2023-07-13T08:27:58;20.50;54.20
28959;DHT22;16066;0.000;0.000;2023-07-13T08:30:23;20.50;54.00
28959;DHT22;16066;0.000;0.000;2023-07-13T08:32:49;20.50;54.10
28959;DHT22;16066;0.000;0.000;2023-07-13T08:35:15;20.50;54.10
28959;DHT22;16066;0.000;0.000;2023-07-13T08:37:41;20.50;54.00
28959;DHT22;16066;0.000;0.000;2023-07-13T08:40:09;20.50;54.10
28959;DHT22;16066;0.000;0.000;2023-07-13T08:42:54;20.50;54.10
28959;DHT22;16066;0.000;0.000;2023-07-13T08:45:32;20.50;54.20
28959;DHT22;16066;0.000;0.000;2023-07-13T08:48:04;20.50;54.20
28959;DHT22;16066;0.000;0.000;2023-07-13T08:50:37;20.60;54.10
28959;DHT22;16066;0.000;0.000;2023-07-13T08:53:07;20.60;54.00
28959;DHT22;16066;0.000;0.000;2023-07-13T08:55:36;20.60;54.10
28959;DHT22;16066;0.000;0.000;2023-07-13T08:58:15;20.60;54.30
28959;DHT22;16066;0.000;0.000;2023-07-13T09:03:20;20.60;54.40
28959;DHT22;16066;0.000;0.000;2023-07-13T09:05:52;20.60;54.40
28959;DHT22;16066;0.000;0.000;2023-07-13T09:08:44;20.60;54.50
28959;DHT22;16066;0.000;0.000;2023-07-13T09:11:26;20.70;54.40
28959;DHT22;16066;0.000;0.000;2023-07-13T09:14:00;20.70;54.30
28959;DHT22;16066;0.000;0.000;2023-07-13T09:16:29;20.70;54.30
28959;DHT22;16066;0.000;0.000;2023-07-13T09:18:59;20.80;54.80
28959;DHT22;16066;0.000;0.000;2023-07-13T09:21:36;20.90;54.20
28959;DHT22;16066;0.000;0.000;2023-07-13T09:26:48;20.90;53.80
28959;DHT22;16066;0.000;0.000;2023-07-13T09:29:27;20.90;53.70
28959;DHT22;16066;0.000;0.000;2023-07-13T09:31:56;21.00;53.80
28959;DHT22;16066;0.000;0.000;2023-07-13T09:34:24;21.00;53.70
28959;DHT22;16066;0.000;0.000;2023-07-13T09:36:49;21.00;53.60
28959;DHT22;16066;0.000;0.000;2023-07-13T09:39:38;21.10;53.60
28959;DHT22;16066;0.000;0.000;2023-07-13T09:50:03;21.20;53.20
28959;DHT22;16066;0.000;0.000;2023-07-13T09:52:43;21.20;53.10
28959;DHT22;16066;0.000;0.000;2023-07-13T09:55:42;21.30;53.10
28959;DHT22;16066;0.000;0.000;2023-07-13T09:58:12;21.30;53.00
28959;DHT22;16066;0.000;0.000;2023-07-13T10:00:38;21.30;52.90
28959;DHT22;16066;0.000;0.000;2023-07-13T10:03:22;21.40;52.80
28959;DHT22;16066;0.000;0.000;2023-07-13T10:05:51;21.40;52.70
28959;DHT22;16066;0.000;0.000;2023-07-13T10:08:18;21.40;52.50
28959;DHT22;16066;0.000;0.000;2023-07-13T10:10:44;21.50;52.60
28959;DHT22;16066;0.000;0.000;2023-07-13T10:13:29;21.50;52.60
28959;DHT22;16066;0.000;0.000;2023-07-13T10:15:56;21.50;52.50
28959;DHT22;16066;0.000;0.000;2023-07-13T10:18:23;21.50;52.50
28959;DHT22;16066;0.000;0.000;2023-07-13T10:20:54;21.50;52.20
28959;DHT22;16066;0.000;0.000;2023-07-13T10:23:31;21.60;52.00
28959;DHT22;16066;0.000;0.000;2023-07-13T10:25:59;21.60;52.00
28959;DHT22;16066;0.000;0.000;2023-07-13T10:28:38;21.60;51.90
28959;DHT22;16066;0.000;0.000;2023-07-13T10:31:12;21.60;51.90
28959;DHT22;16066;0.000;0.000;2023-07-13T10:33:38;21.60;51.90
28959;DHT22;16066;0.000;0.000;2023-07-13T10:38:51;21.70;52.00
28959;DHT22;16066;0.000;0.000;2023-07-13T10:41:21;21.70;52.00
28959;DHT22;16066;0.000;0.000;2023-07-13T10:43:51;21.70;51.80
28959;DHT22;16066;0.000;0.000;2023-07-13T10:46:22;21.70;51.60
28959;DHT22;16066;0.000;0.000;2023-07-13T10:48:52;21.80;51.50
28959;DHT22;16066;0.000;0.000;2023-07-13T10:51:19;21.80;51.50
28959;DHT22;16066;0.000;0.000;2023-07-13T10:54:21;21.90;51.60
28959;DHT22;16066;0.000;0.000;2023-07-13T10:59:38;21.90;51.00
28959;DHT22;16066;0.000;0.000;2023-07-13T11:02:24;22.00;51.00
28959;DHT22;16066;0.000;0.000;2023-07-13T11:04:52;22.00;51.00
28959;DHT22;16066;0.000;0.000;2023-07-13T11:07:27;22.10;50.90
28959;DHT22;16066;0.000;0.000;2023-07-13T11:09:56;22.10;50.70
28959;DHT22;16066;0.000;0.000;2023-07-13T11:17:50;22.30;50.50
28959;DHT22;16066;0.000;0.000;2023-07-13T11:22:49;22.40;50.10
28959;DHT22;16066;0.000;0.000;2023-07-13T11:30:47;22.50;49.80
28959;DHT22;16066;0.000;0.000;2023-07-13T11:33:24;22.50;49.70
28959;DHT22;16066;0.000;0.000;2023-07-13T11:41:27;22.50;50.10
28959;DHT22;16066;0.000;0.000;2023-07-13T11:43:55;22.50;50.20
28959;DHT22;16066;0.000;0.000;2023-07-13T11:46:22;22.60;50.70
28959;DHT22;16066;0.000;0.000;2023-07-13T11:48:48;22.60;50.00
28959;DHT22;16066;0.000;0.000;2023-07-13T11:51:35;22.60;49.90
28959;DHT22;16066;0.000;0.000;2023-07-13T11:54:04;22.60;49.70
28959;DHT22;16066;0.000;0.000;2023-07-13T11:56:30;22.60;49.50
28959;DHT22;16066;0.000;0.000;2023-07-13T11:58:59;22.60;49.60
28959;DHT22;16066;0.000;0.000;2023-07-13T12:01:31;22.70;50.20
28959;DHT22;16066;0.000;0.000;2023-07-13T12:04:01;22.70;50.00
28959;DHT22;16066;0.000;0.000;2023-07-13T12:06:32;22.70;49.40
28959;DHT22;16066;0.000;0.000;2023-07-13T12:09:00;22.70;49.30
28959;DHT22;16066;0.000;0.000;2023-07-13T12:11:27;22.70;49.10
28959;DHT22;16066;0.000;0.000;2023-07-13T12:13:52;22.70;48.90
28959;DHT22;16066;0.000;0.000;2023-07-13T12:18:47;22.80;47.90
28959;DHT22;16066;0.000;0.000;2023-07-13T12:21:17;22.80;47.90
28959;DHT22;16066;0.000;0.000;2023-07-13T12:23:44;22.90;47.90
28959;DHT22;16066;0.000;0.000;2023-07-13T12:26:12;22.90;48.20
28959;DHT22;16066;0.000;0.000;2023-07-13T12:28:43;23.10;48.40
28959;DHT22;16066;0.000;0.000;2023-07-13T12:31:30;23.20;48.20
28959;DHT22;16066;0.000;0.000;2023-07-13T12:36:24;23.40;47.90
28959;DHT22;16066;0.000;0.000;2023-07-13T12:38:50;23.50;48.00
28959;DHT22;16066;0.000;0.000;2023-07-13T12:41:16;23.60;46.80
28959;DHT22;16066;0.000;0.000;2023-07-13T12:43:42;23.70;46.40
28959;DHT22;16066;0.000;0.000;2023-07-13T12:46:20;23.90;46.40
28959;DHT22;16066;0.000;0.000;2023-07-13T12:48:52;24.00;45.80
28959;DHT22;16066;0.000;0.000;2023-07-13T12:51:22;24.00;45.40
28959;DHT22;16066;0.000;0.000;2023-07-13T12:53:56;24.00;44.90
28959;DHT22;16066;0.000;0.000;2023-07-13T12:56:25;23.90;45.60
28959;DHT22;16066;0.000;0.000;2023-07-13T12:59:00;24.10;45.40
28959;DHT22;16066;0.000;0.000;2023-07-13T13:01:33;24.20;44.80
28959;DHT22;16066;0.000;0.000;2023-07-13T13:04:02;24.10;44.60
28959;DHT22;16066;0.000;0.000;2023-07-13T13:06:34;24.00;44.70
28959;DHT22;16066;0.000;0.000;2023-07-13T13:09:02;24.00;44.90
28959;DHT22;16066;0.000;0.000;2023-07-13T13:11:30;24.00;44.90
28959;DHT22;16066;0.000;0.000;2023-07-13T13:13:56;24.00;45.00
28959;DHT22;16066;0.000;0.000;2023-07-13T13:16:45;24.10;45.20
28959;DHT22;16066;0.000;0.000;2023-07-13T13:19:21;24.10;45.00
28959;DHT22;16066;0.000;0.000;2023-07-13T13:21:48;24.30;44.30
28959;DHT22;16066;0.000;0.000;2023-07-13T13:24:17;24.40;44.10
28959;DHT22;16066;0.000;0.000;2023-07-13T13:26:44;24.60;44.00
28959;DHT22;16066;0.000;0.000;2023-07-13T13:29:15;24.70;43.80
28959;DHT22;16066;0.000;0.000;2023-07-13T13:31:41;24.70;43.20
28959;DHT22;16066;0.000;0.000;2023-07-13T13:34:11;24.70;43.00
28959;DHT22;16066;0.000;0.000;2023-07-13T13:36:38;24.60;43.20
28959;DHT22;16066;0.000;0.000;2023-07-13T13:39:18;24.50;42.90
28959;DHT22;16066;0.000;0.000;2023-07-13T13:41:44;24.40;42.90
28959;DHT22;16066;0.000;0.000;2023-07-13T13:44:10;24.30;43.00
28959;DHT22;16066;0.000;0.000;2023-07-13T13:46:36;24.20;43.20
28959;DHT22;16066;0.000;0.000;2023-07-13T13:49:01;24.10;44.10
28959;DHT22;16066;0.000;0.000;2023-07-13T13:51:28;24.10;43.50
28959;DHT22;16066;0.000;0.000;2023-07-13T13:53:54;24.10;44.00
28959;DHT22;16066;0.000;0.000;2023-07-13T13:56:20;24.00;43.90
28959;DHT22;16066;0.000;0.000;2023-07-13T13:58:45;24.00;44.10
28959;DHT22;16066;0.000;0.000;2023-07-13T14:01:19;23.90;44.30
28959;DHT22;16066;0.000;0.000;2023-07-13T14:03:46;23.90;44.50
28959;DHT22;16066;0.000;0.000;2023-07-13T14:06:15;23.80;44.70
28959;DHT22;16066;0.000;0.000;2023-07-13T14:08:41;23.80;44.80
28959;DHT22;16066;0.000;0.000;2023-07-13T14:11:11;23.70;44.30
28959;DHT22;16066;0.000;0.000;2023-07-13T14:13:40;23.70;44.30
28959;DHT22;16066;0.000;0.000;2023-07-13T14:16:16;23.70;44.50
28959;DHT22;16066;0.000;0.000;2023-07-13T14:18:46;23.60;44.50
28959;DHT22;16066;0.000;0.000;2023-07-13T14:21:20;23.60;44.40
28959;DHT22;16066;0.000;0.000;2023-07-13T14:23:47;23.60;44.40
28959;DHT22;16066;0.000;0.000;2023-07-13T14:26:35;23.50;44.90
28959;DHT22;16066;0.000;0.000;2023-07-13T14:29:01;23.50;45.00
28959;DHT22;16066;0.000;0.000;2023-07-13T14:31:28;23.50;45.30
28959;DHT22;16066;0.000;0.000;2023-07-13T14:33:56;23.50;45.10
28959;DHT22;16066;0.000;0.000;2023-07-13T14:36:34;23.50;45.10
28959;DHT22;16066;0.000;0.000;2023-07-13T14:39:19;23.50;45.30
28959;DHT22;16066;0.000;0.000;2023-07-13T14:41:45;23.50;45.40
28959;DHT22;16066;0.000;0.000;2023-07-13T14:44:16;23.50;45.50
28959;DHT22;16066;0.000;0.000;2023-07-13T14:46:42;23.50;46.10
28959;DHT22;16066;0.000;0.000;2023-07-13T14:49:21;23.50;46.20
28959;DHT22;16066;0.000;0.000;2023-07-13T14:51:49;23.50;46.00
28959;DHT22;16066;0.000;0.000;2023-07-13T14:54:14;23.50;46.00
28959;DHT22;16066;0.000;0.000;2023-07-13T14:56:40;23.50;45.90
28959;DHT22;16066;0.000;0.000;2023-07-13T14:59:05;23.50;45.80
28959;DHT22;16066;0.000;0.000;2023-07-13T15:01:34;23.50;45.80
28959;DHT22;16066;0.000;0.000;2023-07-13T15:04:00;23.50;45.70
28959;DHT22;16066;0.000;0.000;2023-07-13T15:06:26;23.50;45.60
28959;DHT22;16066;0.000;0.000;2023-07-13T15:08:51;23.50;45.50
28959;DHT22;16066;0.000;0.000;2023-07-13T15:11:17;23.50;45.40
28959;DHT22;16066;0.000;0.000;2023-07-13T15:13:43;23.50;45.40
28959;DHT22;16066;0.000;0.000;2023-07-13T15:16:18;23.50;45.40
28959;DHT22;16066;0.000;0.000;2023-07-13T15:18:45;23.50;45.70
28959;DHT22;16066;0.000;0.000;2023-07-13T15:21:12;23.50;45.60
28959;DHT22;16066;0.000;0.000;2023-07-13T15:23:40;23.50;45.60
28959;DHT22;16066;0.000;0.000;2023-07-13T15:26:07;23.50;45.60
28959;DHT22;16066;0.000;0.000;2023-07-13T15:28:34;23.50;45.60
28959;DHT22;16066;0.000;0.000;2023-07-13T15:30:59;23.50;45.70
28959;DHT22;16066;0.000;0.000;2023-07-13T15:33:29;23.50;45.90
28959;DHT22;16066;0.000;0.000;2023-07-13T15:35:55;23.50;46.10
28959;DHT22;16066;0.000;0.000;2023-07-13T15:38:28;23.50;45.90
28959;DHT22;16066;0.000;0.000;2023-07-13T15:40:55;23.50;46.50
28959;DHT22;16066;0.000;0.000;2023-07-13T15:43:21;23.50;47.60
28959;DHT22;16066;0.000;0.000;2023-07-13T15:45:47;23.40;49.40
28959;DHT22;16066;0.000;0.000;2023-07-13T15:48:21;23.30;50.20
28959;DHT22;16066;0.000;0.000;2023-07-13T15:50:55;23.30;51.20
28959;DHT22;16066;0.000;0.000;2023-07-13T15:53:28;23.20;52.00
28959;DHT22;16066;0.000;0.000;2023-07-13T15:55:55;23.20;52.40
28959;DHT22;16066;0.000;0.000;2023-07-13T15:58:21;23.10;53.00
28959;DHT22;16066;0.000;0.000;2023-07-13T16:00:46;23.10;52.80
28959;DHT22;16066;0.000;0.000;2023-07-13T16:03:15;23.00;53.50
28959;DHT22;16066;0.000;0.000;2023-07-13T16:05:41;22.90;53.80
28959;DHT22;16066;0.000;0.000;2023-07-13T16:08:27;22.80;54.10
28959;DHT22;16066;0.000;0.000;2023-07-13T16:10:53;22.80;54.50
28959;DHT22;16066;0.000;0.000;2023-07-13T16:13:20;22.80;54.30
28959;DHT22;16066;0.000;0.000;2023-07-13T16:15:46;22.80;54.60
28959;DHT22;16066;0.000;0.000;2023-07-13T16:18:13;22.70;54.00
28959;DHT22;16066;0.000;0.000;2023-07-13T16:20:43;22.80;54.30
28959;DHT22;16066;0.000;0.000;2023-07-13T16:23:09;22.80;55.30
28959;DHT22;16066;0.000;0.000;2023-07-13T16:25:37;22.80;54.60
28959;DHT22;16066;0.000;0.000;2023-07-13T16:28:03;22.80;55.20
28959;DHT22;16066;0.000;0.000;2023-07-13T16:30:30;22.80;54.60
28959;DHT22;16066;0.000;0.000;2023-07-13T16:32:58;22.80;54.90
28959;DHT22;16066;0.000;0.000;2023-07-13T16:35:30;22.80;54.90
28959;DHT22;16066;0.000;0.000;2023-07-13T16:37:59;22.80;55.30
28959;DHT22;16066;0.000;0.000;2023-07-13T16:40:28;22.80;54.40
28959;DHT22;16066;0.000;0.000;2023-07-13T16:42:55;22.90;55.00
28959;DHT22;16066;0.000;0.000;2023-07-13T16:45:23;22.90;54.90
28959;DHT22;16066;0.000;0.000;2023-07-13T16:47:53;23.00;55.20
28959;DHT22;16066;0.000;0.000;2023-07-13T16:50:24;23.00;55.00
28959;DHT22;16066;0.000;0.000;2023-07-13T16:52:51;23.10;55.00
28959;DHT22;16066;0.000;0.000;2023-07-13T16:55:18;23.10;54.90
28959;DHT22;16066;0.000;0.000;2023-07-13T16:57:48;23.20;55.00
28959;DHT22;16066;0.000;0.000;2023-07-13T17:00:23;23.20;54.50
28959;DHT22;16066;0.000;0.000;2023-07-13T17:02:57;23.20;54.40
28959;DHT22;16066;0.000;0.000;2023-07-13T17:05:42;23.20;54.30
28959;DHT22;16066;0.000;0.000;2023-07-13T17:08:28;23.20;54.80
28959;DHT22;16066;0.000;0.000;2023-07-13T17:10:56;23.30;53.90
28959;DHT22;16066;0.000;0.000;2023-07-13T17:13:23;23.20;53.40
28959;DHT22;16066;0.000;0.000;2023-07-13T17:15:52;23.20;53.30
28959;DHT22;16066;0.000;0.000;2023-07-13T17:18:29;23.20;53.20
28959;DHT22;16066;0.000;0.000;2023-07-13T17:21:03;23.20;53.20
28959;DHT22;16066;0.000;0.000;2023-07-13T17:23:29;23.20;54.10
28959;DHT22;16066;0.000;0.000;2023-07-13T17:25:55;23.20;53.10
28959;DHT22;16066;0.000;0.000;2023-07-13T17:28:22;23.20;53.10
28959;DHT22;16066;0.000;0.000;2023-07-13T17:30:50;23.20;53.20
28959;DHT22;16066;0.000;0.000;2023-07-13T17:35:54;23.20;53.10
28959;DHT22;16066;0.000;0.000;2023-07-13T17:38:20;23.20;52.70
28959;DHT22;16066;0.000;0.000;2023-07-13T17:40:46;23.10;52.20
28959;DHT22;16066;0.000;0.000;2023-07-13T17:43:12;23.10;51.80
28959;DHT22;16066;0.000;0.000;2023-07-13T17:45:38;23.10;51.60
28959;DHT22;16066;0.000;0.000;2023-07-13T17:48:09;23.00;51.30
28959;DHT22;16066;0.000;0.000;2023-07-13T17:50:37;22.90;51.30
28959;DHT22;16066;0.000;0.000;2023-07-13T17:53:08;22.90;51.40
28959;DHT22;16066;0.000;0.000;2023-07-13T17:55:36;22.90;51.40
28959;DHT22;16066;0.000;0.000;2023-07-13T17:58:02;22.90;51.10
28959;DHT22;16066;0.000;0.000;2023-07-13T18:00:32;22.90;51.20
28959;DHT22;16066;0.000;0.000;2023-07-13T18:03:16;22.90;51.00
28959;DHT22;16066;0.000;0.000;2023-07-13T18:05:44;22.90;51.10
28959;DHT22;16066;0.000;0.000;2023-07-13T18:08:28;22.90;51.20
28959;DHT22;16066;0.000;0.000;2023-07-13T18:10:55;22.90;51.20
28959;DHT22;16066;0.000;0.000;2023-07-13T18:13:22;22.90;51.30
28959;DHT22;16066;0.000;0.000;2023-07-13T18:15:48;22.90;51.60
28959;DHT22;16066;0.000;0.000;2023-07-13T18:18:16;22.90;51.60
28959;DHT22;16066;0.000;0.000;2023-07-13T18:20:41;22.90;52.00
28959;DHT22;16066;0.000;0.000;2023-07-13T18:25:41;23.00;52.10
28959;DHT22;16066;0.000;0.000;2023-07-13T18:28:07;23.00;52.30
28959;DHT22;16066;0.000;0.000;2023-07-13T18:30:33;23.00;52.20
28959;DHT22;16066;0.000;0.000;2023-07-13T18:32:59;23.00;52.30
28959;DHT22;16066;0.000;0.000;2023-07-13T18:35:32;23.00;52.30
28959;DHT22;16066;0.000;0.000;2023-07-13T18:37:59;23.00;52.50
28959;DHT22;16066;0.000;0.000;2023-07-13T18:40:25;23.10;52.50
28959;DHT22;16066;0.000;0.000;2023-07-13T18:42:52;23.10;52.10
28959;DHT22;16066;0.000;0.000;2023-07-13T18:45:18;23.10;51.80
28959;DHT22;16066;0.000;0.000;2023-07-13T18:47:52;23.00;51.60
28959;DHT22;16066;0.000;0.000;2023-07-13T18:50:24;23.00;51.60
28959;DHT22;16066;0.000;0.000;2023-07-13T18:52:52;23.00;51.60
28959;DHT22;16066;0.000;0.000;2023-07-13T18:55:20;23.00;51.40
28959;DHT22;16066;0.000;0.000;2023-07-13T18:57:46;23.00;51.30
28959;DHT22;16066;0.000;0.000;2023-07-13T19:00:13;23.00;51.40
28959;DHT22;16066;0.000;0.000;2023-07-13T19:02:39;22.90;51.40
28959;DHT22;16066;0.000;0.000;2023-07-13T19:05:16;22.90;51.40
28959;DHT22;16066;0.000;0.000;2023-07-13T19:07:42;22.90;51.40
28959;DHT22;16066;0.000;0.000;2023-07-13T19:10:16;22.90;51.40
28959;DHT22;16066;0.000;0.000;2023-07-13T19:12:46;22.90;51.20
28959;DHT22;16066;0.000;0.000;2023-07-13T19:15:25;22.90;51.10
28959;DHT22;16066;0.000;0.000;2023-07-13T19:17:52;22.90;51.40
28959;DHT22;16066;0.000;0.000;2023-07-13T19:20:19;22.90;51.40
28959;DHT22;16066;0.000;0.000;2023-07-13T19:22:59;22.90;51.60
28959;DHT22;16066;0.000;0.000;2023-07-13T19:25:27;22.90;51.60
28959;DHT22;16066;0.000;0.000;2023-07-13T19:28:04;22.90;51.60
28959;DHT22;16066;0.000;0.000;2023-07-13T19:30:42;22.80;52.30
28959;DHT22;16066;0.000;0.000;2023-07-13T19:33:15;22.80;52.40
28959;DHT22;16066;0.000;0.000;2023-07-13T19:35:41;22.90;52.40
28959;DHT22;16066;0.000;0.000;2023-07-13T19:38:15;22.80;52.30
28959;DHT22;16066;0.000;0.000;2023-07-13T19:40:41;22.80;52.30
28959;DHT22;16066;0.000;0.000;2023-07-13T19:43:12;22.70;52.10
28959;DHT22;16066;0.000;0.000;2023-07-13T19:45:38;22.60;52.10
28959;DHT22;16066;0.000;0.000;2023-07-13T19:48:03;22.60;52.10
28959;DHT22;16066;0.000;0.000;2023-07-13T19:50:30;22.60;52.20
28959;DHT22;16066;0.000;0.000;2023-07-13T19:52:57;22.60;52.50
28959;DHT22;16066;0.000;0.000;2023-07-13T19:55:23;22.60;53.00
28959;DHT22;16066;0.000;0.000;2023-07-13T19:57:50;22.60;53.30
28959;DHT22;16066;0.000;0.000;2023-07-13T20:00:21;22.50;53.50
28959;DHT22;16066;0.000;0.000;2023-07-13T20:02:48;22.50;53.50
28959;DHT22;16066;0.000;0.000;2023-07-13T20:05:19;22.50;53.30
28959;DHT22;16066;0.000;0.000;2023-07-13T20:07:46;22.50;53.70
28959;DHT22;16066;0.000;0.000;2023-07-13T20:10:23;22.40;54.00
28959;DHT22;16066;0.000;0.000;2023-07-13T20:12:53;22.40;54.10
28959;DHT22;16066;0.000;0.000;2023-07-13T20:15:23;22.40;54.70
28959;DHT22;16066;0.000;0.000;2023-07-13T20:17:54;22.40;54.40
28959;DHT22;16066;0.000;0.000;2023-07-13T20:22:59;22.50;54.50
28959;DHT22;16066;0.000;0.000;2023-07-13T20:25:28;22.40;54.40
28959;DHT22;16066;0.000;0.000;2023-07-13T20:27:55;22.40;54.50
28959;DHT22;16066;0.000;0.000;2023-07-13T20:30:22;22.40;54.60
28959;DHT22;16066;0.000;0.000;2023-07-13T20:32:48;22.30;54.70
28959;DHT22;16066;0.000;0.000;2023-07-13T20:37:45;22.40;54.80
28959;DHT22;16066;0.000;0.000;2023-07-13T20:40:16;22.40;54.80
28959;DHT22;16066;0.000;0.000;2023-07-13T20:42:42;22.50;54.70
28959;DHT22;16066;0.000;0.000;2023-07-13T20:45:08;22.50;54.70
28959;DHT22;16066;0.000;0.000;2023-07-13T20:47:35;22.60;54.60
28959;DHT22;16066;0.000;0.000;2023-07-13T20:50:01;22.60;54.50
28959;DHT22;16066;0.000;0.000;2023-07-13T20:52:27;22.60;54.50
28959;DHT22;16066;0.000;0.000;2023-07-13T20:54:52;22.60;54.40
28959;DHT22;16066;0.000;0.000;2023-07-13T20:57:19;22.70;54.40
28959;DHT22;16066;0.000;0.000;2023-07-13T20:59:46;22.70;54.40
28959;DHT22;16066;0.000;0.000;2023-07-13T21:04:48;22.70;54.20
28959;DHT22;16066;0.000;0.000;2023-07-13T21:07:18;22.80;54.30
28959;DHT22;16066;0.000;0.000;2023-07-13T21:09:44;22.80;54.20
28959;DHT22;16066;0.000;0.000;2023-07-13T21:12:09;22.80;54.10
28959;DHT22;16066;0.000;0.000;2023-07-13T21:14:35;22.80;53.90
28959;DHT22;16066;0.000;0.000;2023-07-13T21:17:00;22.80;53.80
28959;DHT22;16066;0.000;0.000;2023-07-13T21:19:26;22.80;53.80
28959;DHT22;16066;0.000;0.000;2023-07-13T21:21:54;22.80;53.80
28959;DHT22;16066;0.000;0.000;2023-07-13T21:24:19;22.80;53.70
28959;DHT22;16066;0.000;0.000;2023-07-13T21:26:45;22.80;53.50
28959;DHT22;16066;0.000;0.000;2023-07-13T21:29:10;22.80;53.70
28959;DHT22;16066;0.000;0.000;2023-07-13T21:31:36;22.80;54.40
28959;DHT22;16066;0.000;0.000;2023-07-13T21:34:10;22.80;54.50
28959;DHT22;16066;0.000;0.000;2023-07-13T21:36:38;22.80;54.00
28959;DHT22;16066;0.000;0.000;2023-07-13T21:39:08;22.80;53.90
28959;DHT22;16066;0.000;0.000;2023-07-13T21:41:36;22.80;53.90
28959;DHT22;16066;0.000;0.000;2023-07-13T21:44:23;22.90;53.90
28959;DHT22;16066;0.000;0.000;2023-07-13T21:46:50;22.90;53.80
28959;DHT22;16066;0.000;0.000;2023-07-13T21:49:16;22.90;53.70
28959;DHT22;16066;0.000;0.000;2023-07-13T21:51:42;22.90;53.60
28959;DHT22;16066;0.000;0.000;2023-07-13T21:54:20;22.90;53.40
28959;DHT22;16066;0.000;0.000;2023-07-13T21:56:46;22.90;53.30
28959;DHT22;16066;0.000;0.000;2023-07-13T21:59:27;23.00;53.30
28959;DHT22;16066;0.000;0.000;2023-07-13T22:01:54;22.90;53.30
28959;DHT22;16066;0.000;0.000;2023-07-13T22:04:26;22.90;53.30
28959;DHT22;16066;0.000;0.000;2023-07-13T22:06:52;22.90;53.20
28959;DHT22;16066;0.000;0.000;2023-07-13T22:09:20;22.90;53.80
